Latest Weather Observations for Brisbane Airport

IDQ60801

Issued at 2:32 pm EST Thursday 14 December 2017 (issued every 30 minutes, with the page automatically refreshed every 10 minutes)

About weather observations | Map of weather stations | Latest weather observations for QLD | Other Formats
Station Details ID: 040842 Name: BRISBANE AERO Lat: -27.39 Lon: 153.13 Height: 4.51 m
Data from the previous 72 hours. | See also: Recent months at Brisbane Airport
Date/Time
EST
Temp
°C
App
Temp
°C
Dew
Point
°C
Rel
Hum
%
Delta-T
°C
Wind Press
QNH
hPa
Press
MSL
hPa
Rain since
9am
mm
Dir  Spd
km/h
Gust
km/h
Spd
kts
Gust
kts
14/02:00pm 27.2 26.0 17.5 55 6.1 NNE 20 28 11 15 1011.5 1011.5 0.0
14/01:30pm 27.4 26.6 17.9 56 6.0 NE 19 28 10 15 1011.7 1011.7 0.0
14/01:00pm 27.4 26.6 17.0 53 6.5 NE 17 24 9 13 1011.9 1011.9 0.0
14/12:30pm 27.7 26.8 17.7 54 6.3 NNE 19 24 10 13 1012.0 1012.0 0.0
14/12:00pm 26.1 25.4 17.3 58 5.5 NNE 17 20 9 11 1012.4 1012.4 0.0
14/11:30am 26.6 26.3 17.3 56 5.8 NNE 15 22 8 12 1012.7 1012.7 0.0
14/11:00am 26.0 25.8 17.5 59 5.3 NNE 15 20 8 11 1013.0 1013.0 0.0
14/10:30am 26.7 27.1 18.2 59 5.4 NNE 13 20 7 11 1013.2 1013.2 0.0
14/10:00am 25.7 26.1 18.1 63 4.8 NE 13 19 7 10 1013.5 1013.5 0.0
14/09:30am 25.7 26.2 18.3 63 4.7 NNE 13 20 7 11 1013.5 1013.5 0.0
14/09:00am 25.6 27.2 17.8 62 4.9 ESE 6 13 3 7 1013.8 1013.8 0.0
14/08:30am 25.3 26.1 17.4 61 4.9 SSE 9 13 5 7 1014.0 1014.0 0.0
14/08:00am 25.1 26.7 17.8 64 4.6 SE 6 13 3 7 1013.9 1013.9 0.0
14/07:30am 24.5 25.1 17.8 66 4.2 SSW 11 15 6 8 1014.1 1014.1 0.0
14/07:00am 23.3 23.5 17.7 71 3.5 SSW 13 17 7 9 1014.0 1014.0 0.0
14/06:30am 21.7 21.9 17.7 78 2.5 SSW 13 17 7 9 1014.0 1014.0 0.0
14/06:00am 20.5 20.8 17.9 85 1.6 SSW 13 15 7 8 1013.7 1013.7 0.0
14/05:30am 18.9 18.9 17.3 90 1.0 SSW 13 17 7 9 1013.5 1013.5 0.0
14/05:00am 18.3 18.4 16.6 90 1.0 SSW 11 15 6 8 1013.3 1013.3 0.0
14/04:30am 18.9 19.8 16.7 87 1.3 SSW 7 9 4 5 1013.2 1013.2 0.0
14/04:00am 19.6 20.7 17.0 85 1.6 SSW 7 9 4 5 1013.0 1013.0 0.0
14/03:30am 19.3 20.3 16.8 85 1.5 SSW 7 7 4 4 1012.9 1012.9 0.0
14/03:00am 19.7 22.0 16.7 83 1.8 CALM 0 9 0 5 1013.0 1013.0 0.0
14/02:30am 21.0 23.6 17.4 80 2.2 CALM 0 0 0 0 1013.2 1013.2 0.0
14/02:00am 21.6 22.7 16.7 73 3.0 E 6 7 3 4 1013.2 1013.2 0.0
14/01:30am 22.0 23.1 16.6 71 3.3 ESE 6 9 3 5 1013.3 1013.3 0.0
14/01:00am 22.2 23.2 16.8 71 3.3 E 7 9 4 5 1013.6 1013.6 0.0
14/12:30am 22.5 23.2 17.0 71 3.4 E 9 13 5 7 1014.1 1014.1 0.0
14/12:00am 22.9 24.0 17.0 69 3.6 E 7 11 4 6 1014.5 1014.5 0.0
 
Date/Time
EST
Temp
°C
App
Temp
°C
Dew
Point
°C
Rel
Hum
%
Delta-T
°C
Wind Press
QNH
hPa
Press
MSL
hPa
Rain since
9am
mm
Dir  Spd
km/h
Gust
km/h
Spd
kts
Gust
kts
13/11:30pm 22.9 23.8 17.6 72 3.3 E 9 13 5 7 1014.7 1014.7 0.0
13/11:00pm 23.0 23.5 17.5 71 3.4 E 11 17 6 9 1014.9 1014.9 0.0
13/10:30pm 23.0 23.7 17.9 73 3.2 E 11 15 6 8 1015.2 1015.2 0.0
13/10:00pm 23.3 23.8 17.5 70 3.6 E 11 17 6 9 1015.3 1015.3 0.0
13/09:30pm 23.4 24.0 17.8 71 3.5 E 11 17 6 9 1015.3 1015.3 0.0
13/09:00pm 23.6 23.9 18.0 71 3.5 ENE 13 19 7 10 1015.1 1015.1 0.0
13/08:30pm 24.0 24.1 18.3 70 3.6 ENE 15 19 8 10 1015.0 1015.0 0.0
13/08:00pm 24.0 25.3 18.5 71 3.5 E 9 17 5 9 1015.1 1015.1 0.0
13/07:30pm 24.1 24.4 18.0 68 3.8 ENE 13 20 7 11 1014.9 1014.9 0.0
13/07:00pm 24.2 24.5 17.8 67 4.0 ENE 13 20 7 11 1014.8 1014.8 0.0
13/06:30pm 24.4 24.3 17.8 66 4.1 ENE 15 24 8 13 1014.6 1014.6 0.0
13/06:00pm 24.6 24.7 18.3 68 4.0 ENE 15 24 8 13 1014.4 1014.4 0.0
13/05:30pm 25.0 24.4 18.4 66 4.2 ENE 19 28 10 15 1013.9 1013.9 0.0
13/05:00pm 25.6 24.5 17.8 62 4.9 ENE 20 30 11 16 1013.7 1013.7 0.0
13/04:30pm 26.0 25.3 18.3 62 4.9 ENE 19 30 10 16 1013.2 1013.2 0.0
13/04:00pm 26.5 25.9 18.8 62 4.9 ENE 20 30 11 16 1013.0 1013.0 0.0
13/03:30pm 26.6 25.3 17.3 56 5.8 ENE 20 30 11 16 1013.2 1013.2 0.0
13/03:00pm 27.0 25.9 17.3 55 6.1 ENE 19 28 10 15 1013.5 1013.5 0.0
13/02:30pm 26.9 26.0 18.2 59 5.5 ENE 20 28 11 15 1013.9 1013.9 0.0
13/02:00pm 26.6 26.1 17.9 59 5.5 ENE 17 28 9 15 1014.0 1014.0 0.0
13/01:30pm 27.2 27.5 19.5 62 5.0 ENE 17 28 9 15 1014.2 1014.2 0.0
13/01:00pm 26.7 26.7 18.9 62 5.0 ENE 17 28 9 15 1014.6 1014.6 0.0
13/12:30pm 26.1 25.9 18.4 62 4.9 ENE 17 22 9 12 1014.9 1014.9 0.0
13/12:00pm 27.3 27.4 19.1 61 5.3 ENE 17 26 9 14 1015.0 1015.0 0.0
13/11:30am 26.6 26.6 18.2 60 5.3 E 15 26 8 14 1015.2 1015.2 0.0
13/11:00am 26.3 27.1 19.0 64 4.7 E 13 22 7 12 1015.5 1015.5 0.0
13/10:30am 26.7 27.1 19.1 63 4.9 E 15 22 8 12 1015.7 1015.7 0.0
13/10:00am 26.8 27.8 19.4 64 4.8 ESE 13 20 7 11 1015.8 1015.8 0.0
13/09:30am 25.8 26.6 18.2 63 4.8 ESE 11 17 6 9 1015.9 1015.9 0.0
13/09:00am 25.9 26.6 18.0 61 5.0 SE 11 24 6 13 1015.9 1015.9 0.0
13/08:30am 25.4 26.3 18.5 65 4.4 SE 11 15 6 8 1016.0 1016.0 0.0
13/08:00am 25.0 26.0 18.7 68 4.0 SE 11 15 6 8 1015.9 1015.9 0.0
13/07:30am 23.6 24.5 17.6 69 3.7 S 9 15 5 8 1015.9 1015.9 0.0
13/07:00am 22.9 23.3 17.2 70 3.5 S 11 17 6 9 1015.7 1015.7 0.0
13/06:30am 21.6 21.5 17.0 75 2.8 SSW 13 17 7 9 1015.5 1015.5 0.0
13/06:00am 20.4 20.2 16.6 79 2.3 SSW 13 17 7 9 1015.1 1015.1 0.0
13/05:30am 19.9 20.1 16.8 82 1.9 SSW 11 15 6 8 1015.1 1015.1 0.0
13/05:00am 19.4 19.5 16.6 84 1.7 SSW 11 13 6 7 1015.0 1015.0 0.0
13/04:30am 19.5 20.1 16.7 84 1.7 SSW 9 11 5 6 1014.7 1014.7 0.0
13/04:00am 19.6 20.7 17.0 85 1.6 SSW 7 9 4 5 1014.6 1014.6 0.0
13/03:30am 20.3 21.4 17.2 82 1.9 SSW 7 9 4 5 1014.5 1014.5 0.0
13/03:00am 19.9 21.1 17.3 85 1.6 SSW 7 9 4 5 1014.5 1014.5 0.0
13/02:30am 20.1 20.9 17.3 84 1.7 S 9 15 5 8 1014.5 1014.5 0.0
13/02:00am 20.1 20.9 17.3 84 1.7 S 9 11 5 6 1014.8 1014.8 0.0
13/01:30am 20.3 21.1 17.2 82 1.9 SSW 9 13 5 7 1015.2 1015.2 0.0
13/01:00am 20.4 21.3 17.5 83 1.8 S 9 13 5 7 1015.6 1015.6 0.0
13/12:30am 20.7 21.3 17.6 82 1.9 SSW 11 13 6 7 1016.0 1016.0 0.0
13/12:00am 20.7 21.3 17.6 82 1.9 SSW 11 13 6 7 1016.5 1016.5 0.0
 
Date/Time
EST
Temp
°C
App
Temp
°C
Dew
Point
°C
Rel
Hum
%
Delta-T
°C
Wind Press
QNH
hPa
Press
MSL
hPa
Rain since
9am
mm
Dir  Spd
km/h
Gust
km/h
Spd
kts
Gust
kts
12/11:30pm 20.3 20.9 17.7 85 1.6 SSW 11 15 6 8 1016.7 1016.7 0.0
12/11:00pm 20.2 21.1 17.6 85 1.6 SSW 9 13 5 7 1016.9 1016.9 0.0
12/10:30pm 21.4 22.4 17.7 79 2.3 S 9 13 5 7 1017.0 1017.0 0.0
12/10:00pm 21.6 22.5 17.5 77 2.5 S 9 13 5 7 1017.2 1017.2 0.0
12/09:30pm 22.3 23.5 17.4 74 3.0 SSE 7 11 4 6 1017.3 1017.3 0.0
12/09:00pm 22.5 22.2 17.3 72 3.2 SE 15 26 8 14 1017.4 1017.4 0.0
12/08:30pm 23.1 22.3 17.1 69 3.7 SE 17 28 9 15 1017.2 1017.2 0.0
12/08:00pm 23.2 22.7 17.0 68 3.8 SE 15 26 8 14 1017.0 1017.0 0.0
12/07:30pm 23.3 22.2 17.3 69 3.7 SE 19 30 10 16 1017.0 1017.0 0.0
12/07:00pm 23.5 22.4 17.4 68 3.8 SE 19 35 10 19 1016.7 1016.7 0.0
12/06:30pm 23.8 22.4 17.0 65 4.2 SE 20 32 11 17 1016.4 1016.4 0.0
12/06:00pm 24.4 22.7 16.2 60 5.0 SE 20 32 11 17 1016.3 1016.3 0.0
12/05:30pm 25.1 23.0 15.1 53 6.0 SE 20 33 11 18 1015.8 1015.8 0.0
12/05:00pm 25.3 23.8 17.6 62 4.8 ESE 22 35 12 19 1015.6 1015.6 0.0
12/04:30pm 25.6 24.1 17.8 62 4.9 ESE 22 35 12 19 1015.3 1015.3 0.0
12/04:00pm 25.7 23.9 17.9 62 4.9 ESE 24 39 13 21 1015.2 1015.2 0.0
12/03:30pm 26.0 24.0 17.5 59 5.3 ESE 24 41 13 22 1015.2 1015.2 0.0
12/03:00pm 26.2 24.0 17.0 57 5.7 ESE 24 35 13 19 1015.3 1015.3 0.0
12/02:30pm 26.5 24.1 16.4 53 6.2 ESE 24 41 13 22 1015.5 1015.5 0.0
12/02:00pm 26.6 24.4 16.8 55 6.1 ESE 24 35 13 19 1015.7 1015.7 0.0
12/01:30pm 26.4 24.0 16.5 54 6.1 ESE 24 37 13 20 1015.8 1015.8 0.0
12/01:00pm 26.8 24.2 16.0 51 6.6 ESE 24 41 13 22 1015.8 1015.8 0.0
12/12:30pm 26.7 24.3 16.5 53 6.3 ESE 24 37 13 20 1015.9 1015.9 0.0
12/12:00pm 27.2 24.3 16.0 50 6.9 ESE 26 39 14 21 1016.2 1016.2 0.0
12/11:30am 27.2 25.1 16.3 51 6.7 SE 22 35 12 19 1016.4 1016.4 0.0
12/11:00am 26.6 25.0 16.6 54 6.2 ESE 20 33 11 18 1016.8 1016.8 0.0
12/10:30am 25.9 23.8 15.1 51 6.5 SE 20 33 11 18 1017.0 1017.0 0.0
12/10:00am 25.8 23.3 15.2 52 6.4 SE 22 37 12 20 1017.2 1017.2 0.0
12/09:30am 25.5 24.0 15.2 53 6.2 SE 17 30 9 16 1017.0 1017.0 0.0
12/09:00am 25.8 24.7 15.2 52 6.4 SSE 15 26 8 14 1016.9 1016.9 0.0
12/08:30am 24.8 23.4 15.5 56 5.6 SSE 17 24 9 13 1016.9 1016.9 0.0
12/08:00am 24.8 23.5 15.9 57 5.4 S 17 28 9 15 1016.9 1016.9 0.0
12/07:30am 23.4 21.5 15.2 60 4.9 S 19 28 10 15 1016.8 1016.8 0.0
12/07:00am 22.3 20.5 15.4 65 4.1 SSW 19 26 10 14 1016.8 1016.8 0.0
12/06:30am 21.3 19.8 15.2 68 3.6 SSW 17 24 9 13 1016.8 1016.8 0.0
12/06:00am 19.4 17.2 15.0 75 2.6 SSW 20 28 11 15 1016.6 1016.6 0.0
12/05:30am 18.5 17.3 15.1 80 2.0 SSW 15 22 8 12 1016.3 1016.3 0.0
12/05:00am 18.3 17.0 14.9 80 2.0 SSW 15 19 8 10 1015.9 1015.9 0.0
12/04:30am 17.6 15.9 14.7 83 1.7 SSW 17 19 9 10 1015.8 1015.8 0.0
12/04:00am 17.5 16.1 14.5 82 1.7 SSW 15 19 8 10 1015.6 1015.6 0.0
12/03:30am 19.2 17.8 14.4 74 2.8 SSW 15 20 8 11 1015.5 1015.5 0.0
12/03:00am 19.0 17.9 14.3 74 2.7 SSW 13 17 7 9 1015.5 1015.5 0.0
12/02:30am 19.7 18.2 14.3 71 3.1 SSW 15 19 8 10 1015.5 1015.5 0.0
12/02:00am 19.3 18.4 14.8 75 2.6 SSW 13 17 7 9 1015.8 1015.8 0.0
12/01:30am 18.5 17.5 14.7 78 2.2 SSW 13 19 7 10 1016.0 1016.0 0.0
12/01:00am 19.7 18.8 14.9 74 2.8 SSW 13 17 7 9 1016.3 1016.3 0.0
12/12:30am 20.2 19.2 14.7 70 3.2 S 13 20 7 11 1016.6 1016.6 0.0
12/12:00am 20.2 18.9 14.9 71 3.1 S 15 26 8 14 1016.9 1016.9 0.0
 
Date/Time
EST
Temp
°C
App
Temp
°C
Dew
Point
°C
Rel
Hum
%
Delta-T
°C
Wind Press
QNH
hPa
Press
MSL
hPa
Rain since
9am
mm
Dir  Spd
km/h
Gust
km/h
Spd
kts
Gust
kts
11/11:30pm 20.2 19.8 15.3 73 2.9 S 11 17 6 9 1017.3 1017.3 0.0
11/11:00pm 20.7 20.0 15.3 71 3.2 SSE 13 19 7 10 1017.6 1017.6 0.0
11/10:30pm 21.1 20.5 15.7 71 3.2 S 13 20 7 11 1017.8 1017.8 0.0
11/10:00pm 21.5 20.7 16.2 72 3.2 SSE 15 30 8 16 1017.8 1017.8 0.0
11/09:30pm 22.0 21.0 15.6 67 3.8 SSE 15 28 8 15 1017.6 1017.6 0.0
11/09:00pm 22.2 20.9 15.7 66 3.9 SE 17 32 9 17 1017.2 1017.2 0.0
11/08:30pm 22.5 21.5 15.7 65 4.1 SE 15 32 8 17 1016.8 1016.8 0.0
11/08:00pm 22.7 20.9 15.9 65 4.1 SE 20 30 11 16 1016.6 1016.6 0.0
11/07:30pm 22.9 21.2 16.3 66 4.0 SE 20 32 11 17 1016.5 1016.5 0.0
11/07:00pm 23.2 21.4 15.9 63 4.4 ESE 20 30 11 16 1016.2 1016.2 0.0
11/06:30pm 23.3 21.5 16.0 63 4.4 SE 20 35 11 19 1015.9 1015.9 0.0
11/06:00pm 23.6 21.2 16.4 64 4.4 SE 24 37 13 20 1015.7 1015.7 0.0
11/05:30pm 23.9 22.4 16.7 64 4.4 ESE 20 35 11 19 1015.4 1015.4 0.0
11/05:00pm 24.4 22.5 16.8 62 4.7 ESE 22 33 12 18 1015.1 1015.1 0.0
11/04:30pm 24.8 22.7 16.3 59 5.2 ESE 22 37 12 20 1014.8 1014.8 0.0
11/04:00pm 25.4 23.2 16.8 59 5.3 ESE 24 35 13 19 1014.8 1014.8 0.0
11/03:30pm 25.2 23.0 17.0 60 5.1 ESE 24 39 13 21 1014.8 1014.8 0.0
11/03:00pm 25.4 23.3 17.2 60 5.1 ESE 24 37 13 20 1015.1 1015.1 0.0

Other Formats:

Comma delimited format used in spreadsheet applications
http://www.bom.gov.au/fwo/IDQ60801/IDQ60801.94578.axf

JavaScript Object Notation format (JSON) in row-major order
http://www.bom.gov.au/fwo/IDQ60801/IDQ60801.94578.json